עמוד ראשי
METAR-TAF:

METAR-TAF

שדות תעופה :

Chetumal, מקסיקו

קו רוחב: 18-29N, קו אורך: 088-18W, גובה: 9מטר

תצפית מזג אוויר נוכחית

הדו"ח נערך לפני 4 שעות ו 8דקות, בשעה 02:47 UTC
רוח 7קשר מכיוון מזרח/דרום-מזרח
טמפרטורת 29 צלסיוס
לחות 84%
לחץ 1012 hPa
ראות: 11.3קילומטר
עננים בינוניים בגובה 2000רגל

METAR: MMCM 270247Z 11007KT 7SM BKN020 29/26 A2987 RMK SLP116 5//// 954 6//// 8/500

זמן: 01:55 (06:55 UTC)

תחזית

הדו"ח נערך לפני 1 שעות ו 50דקות, בשעה 05:05 UTC
תחזית בתוקף מ 27 ב 06 UTC עד 28 ב 06 UTC
רוח 10קשר מכיוון מזרח/דרום-מזרח
ראות: 10קילומטר
עננים בינוניים בגובה 2000רגל
זמנית מ -
27 ב 09 UTC עד 27 ב 13 UTC
ראות: 8.0קילומטר
עננים בינוניים בגובה 1500רגל
אובך
מ 27 ב 1400UTC
רוח 15קשר מכיוון דרום/דרום-מזרח
ראות: 10קילומטר
עננים פזורים בגובה 2000רגל
זמנית מ -
27 ב 23 UTC עד 28 ב 03 UTC
עננים בינוניים בגובה 2000רגל
מ 28 ב 0400UTC
רוח 10קשר מכיוון מזרח/דרום-מזרח
ראות: 10קילומטר
עננים פזורים בגובה 2000רגל

TAF: MMCM 270505Z 2706/2806 12010KT P6SM BKN020 TEMPO 2709/2713 5SM HZ BKN015 FM271400 15015KT P6SM SCT020 TEMPO 2723/2803 BKN020 FM280400 12010KT P6SM SCT020

תצפיות ותחזיות מזג אוויר לגבי יותר מ- 4,000 שדות תעופה ברחבי העולם. דוחות METAR ו- TAF.

התחנות הזמינות מסומנות בנקודות צהובות ואדומות על גבי המפה.

העבר את העכבר לנקודה הצבעונית על מנת לראות את שם התחנה.

לאחר מכן, לחץ כדי לראות את תוכן ואת תחזיות מזג האוויר.

כדי לשנות את המפה: לחץ על הכפתורים הירוקים עם הפלוס השחור כדי להתקרב; על הכפתור הירוק עם המקף כדי להתרחק; או בחיצים הירוקים למפות סמוכות.


METAR-TAF: